createdAt,value
2017-03-24T05:52:00.505Z,125
2017-03-24T05:53:05.500Z,125
2017-03-24T05:54:10.782Z,125
2017-03-24T05:55:16.113Z,125
2017-03-24T07:34:21.255Z,90
2017-03-24T07:35:25.628Z,380
2017-03-24T07:36:29.987Z,395
2017-03-24T07:37:34.380Z,400
2017-03-24T07:38:38.741Z,405
2017-03-24T07:39:43.101Z,400
2017-03-24T07:40:47.494Z,385
2017-03-24T07:41:51.905Z,395
2017-03-24T07:42:56.296Z,410
2017-03-24T07:44:00.705Z,430
2017-03-24T07:45:05.953Z,470
2017-03-24T07:46:10.375Z,480
2017-03-24T07:47:14.812Z,505
2017-03-24T07:48:19.697Z,515
2017-03-24T07:49:24.067Z,480
2017-03-24T07:50:28.440Z,535
2017-03-24T07:51:32.867Z,520
2017-03-24T07:52:37.292Z,480
2017-03-24T07:53:41.722Z,480
2017-03-24T07:54:46.190Z,465
2017-03-24T07:55:50.787Z,485
2017-03-24T07:56:55.206Z,465
2017-03-24T07:57:59.608Z,470
2017-03-24T07:59:04.021Z,465
2017-03-24T08:00:08.398Z,465
2017-03-24T08:01:12.864Z,455
2017-03-24T08:02:17.179Z,445
2017-03-24T08:03:21.599Z,450
2017-03-24T08:04:26.001Z,460
2017-03-24T08:05:30.411Z,445
2017-03-24T08:06:34.800Z,445
2017-03-24T08:07:39.224Z,465
2017-03-24T08:08:43.598Z,475
2017-03-24T08:09:47.953Z,475
2017-03-24T08:10:52.240Z,465
2017-03-24T08:11:56.577Z,485
2017-03-24T08:13:01.434Z,490
2017-03-24T08:14:05.910Z,470
2017-03-24T08:15:10.309Z,485
2017-03-24T08:16:14.670Z,470
2017-03-24T08:17:19.056Z,500
2017-03-24T08:18:23.503Z,520
2017-03-24T08:19:28.145Z,515
2017-03-24T08:20:32.758Z,505
2017-03-24T08:21:37.206Z,485
2017-03-24T08:22:41.609Z,485
2017-03-24T08:23:46.021Z,485
2017-03-24T08:24:50.405Z,470
2017-03-24T08:25:54.850Z,470
2017-03-24T08:26:59.214Z,455
2017-03-24T08:28:03.609Z,450
2017-03-24T08:29:07.960Z,470
2017-03-24T08:30:12.393Z,520
2017-03-24T08:31:16.769Z,495
2017-03-24T08:32:21.210Z,470
2017-03-24T08:33:25.651Z,440
2017-03-24T08:34:30.016Z,470
2017-03-24T08:35:34.501Z,490
2017-03-24T08:36:38.889Z,460
2017-03-24T08:37:43.288Z,460
2017-03-24T08:38:47.720Z,465
2017-03-24T08:39:52.148Z,535
2017-03-24T08:40:56.607Z,475
2017-03-24T08:42:01.019Z,500
2017-03-24T09:55:55.670Z,520
2017-03-24T09:57:00.216Z,475
2017-03-24T09:58:04.631Z,480
2017-03-24T09:59:09.034Z,490
2017-03-24T10:00:13.528Z,515
2017-03-24T10:01:17.980Z,535
2017-03-24T10:02:22.374Z,505
2017-03-24T10:03:26.838Z,535
2017-03-24T10:04:32.454Z,535
2017-03-24T10:05:37.385Z,510
2017-03-24T10:06:41.703Z,495
2017-03-24T10:07:46.620Z,540
2017-03-24T10:08:51.072Z,515
2017-03-24T10:09:55.719Z,480
2017-03-24T10:11:00.228Z,465
2017-03-24T10:12:04.958Z,460
2017-03-24T10:13:09.602Z,465
2017-03-24T10:14:13.968Z,505
2017-03-24T10:15:18.511Z,540
2017-03-24T10:16:23.292Z,555
2017-03-24T10:17:27.809Z,490
2017-03-24T10:18:32.174Z,545
2017-03-24T10:19:36.834Z,535
2017-03-24T10:20:41.528Z,495
2017-03-24T10:21:45.908Z,460
